createdAt,value
2023-04-16T00:02:12.151Z,97443.50
2023-04-16T00:05:01.170Z,97443.50
2023-04-16T00:07:51.624Z,97439.34
2023-04-16T00:10:41.858Z,97439.03
2023-04-16T00:13:30.628Z,97444.78
2023-04-16T00:16:19.490Z,97437.13
2023-04-16T00:19:08.647Z,97440.47
2023-04-16T00:21:57.689Z,97442.38
2023-04-16T00:24:46.578Z,97446.84
2023-04-16T00:27:37.466Z,97451.00
2023-04-16T00:30:26.788Z,97449.88
2023-04-16T00:33:16.089Z,97446.84
2023-04-16T00:36:06.216Z,97447.31
2023-04-16T00:38:55.488Z,97447.66
2023-04-16T00:41:45.305Z,97442.38
2023-04-16T00:44:36.059Z,97443.03
2023-04-16T00:47:25.513Z,97444.28
2023-04-16T00:50:15.280Z,97452.13
2023-04-16T00:53:04.369Z,97449.56
2023-04-16T00:55:53.581Z,97440.94
2023-04-16T00:58:42.488Z,97445.72
2023-04-16T01:01:32.900Z,97442.84
2023-04-16T01:04:22.274Z,97444.28
2023-04-16T01:07:11.391Z,97449.25
2023-04-16T01:10:00.587Z,97452.13
2023-04-16T01:12:49.430Z,97451.47
2023-04-16T01:15:38.545Z,97448.41
2023-04-16T01:18:28.703Z,97446.19
2023-04-16T01:21:18.929Z,97450.97
2023-04-16T01:24:08.377Z,97450.22
2023-04-16T01:26:59.587Z,97451.78
2023-04-16T01:29:48.436Z,97455.31
2023-04-16T01:32:42.818Z,97464.72
2023-04-16T01:35:31.639Z,97456.75
2023-04-16T01:38:21.942Z,97462.47
2023-04-16T01:41:10.885Z,97462.78
2023-04-16T01:43:59.878Z,97461.38
2023-04-16T01:46:48.771Z,97461.84
2023-04-16T01:49:37.743Z,97457.88
2023-04-16T01:52:26.555Z,97458.47
2023-04-16T01:55:16.873Z,97469.81
2023-04-16T01:58:07.401Z,97465.50
2023-04-16T02:00:57.008Z,97468.84
2023-04-16T02:03:46.097Z,97466.47
2023-04-16T02:06:35.066Z,97464.72
2023-04-16T02:09:24.558Z,97469.03
2023-04-16T02:12:15.536Z,97468.53
2023-04-16T02:15:05.006Z,97470.31
2023-04-16T02:17:56.888Z,97469.16
2023-04-16T02:20:49.575Z,97480.84
2023-04-16T02:23:41.077Z,97481.44
2023-04-16T02:26:30.158Z,97481.44
2023-04-16T02:29:25.617Z,97486.25
2023-04-16T02:32:22.298Z,97480.66
2023-04-16T02:35:11.326Z,97482.59
2023-04-16T02:38:00.854Z,97480.19
2023-04-16T02:40:49.717Z,97491.84
2023-04-16T02:43:39.369Z,97492.94
2023-04-16T02:46:29.557Z,97493.44
2023-04-16T02:49:18.423Z,97494.22
2023-04-16T02:52:07.293Z,97498.53
2023-04-16T02:54:56.090Z,97502.53
2023-04-16T02:57:45.061Z,97505.09
2023-04-16T03:00:33.902Z,97496.47
2023-04-16T03:03:24.472Z,97498.84
2023-04-16T03:06:13.551Z,97492.50
2023-04-16T03:09:02.475Z,97495.69
2023-04-16T03:11:51.206Z,97501.25
2023-04-16T03:14:40.008Z,97499.19
2023-04-16T03:17:28.816Z,97498.22
2023-04-16T03:20:19.844Z,97504.13
2023-04-16T03:23:08.778Z,97511.94
2023-04-16T03:25:57.554Z,97515.28
2023-04-16T03:28:46.949Z,97511.63
2023-04-16T03:31:36.297Z,97513.69
2023-04-16T03:34:25.366Z,97511.78
2023-04-16T03:37:15.514Z,97516.25
2023-04-16T03:40:05.955Z,97521.53
2023-04-16T03:42:54.790Z,97519.75
2023-04-16T03:45:45.978Z,97513.19
2023-04-16T03:48:35.597Z,97522.59
2023-04-16T03:51:26.477Z,97521.00
2023-04-16T03:54:16.945Z,97526.94
2023-04-16T03:57:12.216Z,97526.94
2023-04-16T04:00:01.453Z,97529.34
2023-04-16T04:03:03.379Z,97529.16
2023-04-16T04:05:53.377Z,97536.03
2023-04-16T04:08:51.595Z,97543.81
2023-04-16T04:11:41.948Z,97540.66
2023-04-16T04:14:30.940Z,97539.06
2023-04-16T04:17:19.994Z,97543.50
2023-04-16T04:20:09.970Z,97537.63
2023-04-16T04:22:59.790Z,97544.84
2023-04-16T04:25:49.581Z,97548.34
2023-04-16T04:28:39.847Z,97554.56
2023-04-16T04:31:28.878Z,97563.50
2023-04-16T04:34:18.238Z,97562.06
2023-04-16T04:37:07.018Z,97561.91
2023-04-16T04:39:56.191Z,97557.75
2023-04-16T04:42:44.990Z,97563.69
2023-04-16T04:45:35.372Z,97570.38
2023-04-16T04:48:26.782Z,97574.19
2023-04-16T04:51:16.608Z,97571.34
2023-04-16T04:54:07.795Z,97572.13
2023-04-16T04:56:56.791Z,97580.13
2023-04-16T04:59:45.813Z,97585.56
2023-04-16T05:02:37.660Z,97580.91
2023-04-16T05:05:26.569Z,97589.41
2023-04-16T05:08:15.619Z,97585.25
2023-04-16T05:11:04.500Z,97590.81
2023-04-16T05:13:53.592Z,97591.78
2023-04-16T05:16:42.484Z,97601.50
2023-04-16T05:19:32.733Z,97595.59
2023-04-16T05:22:21.807Z,97602.44
2023-04-16T05:25:11.182Z,97607.59
2023-04-16T05:27:59.977Z,97598.81
2023-04-16T05:30:48.838Z,97610.63
2023-04-16T05:33:37.694Z,97611.13
2023-04-16T05:36:27.868Z,97615.75
2023-04-16T05:39:19.082Z,97611.28
2023-04-16T05:42:10.527Z,97619.44
2023-04-16T05:44:59.634Z,97618.47
2023-04-16T05:47:48.533Z,97626.59
2023-04-16T05:50:37.768Z,97622.06
2023-04-16T05:53:27.953Z,97620.69
2023-04-16T05:56:16.764Z,97626.50
2023-04-16T05:59:05.595Z,97626.84
2023-04-16T06:01:54.873Z,97630.19
2023-04-16T06:04:43.692Z,97636.69
2023-04-16T06:07:32.586Z,97633.41
2023-04-16T06:10:22.784Z,97636.84
2023-04-16T06:13:11.582Z,97639.56
2023-04-16T06:16:00.423Z,97639.22
2023-04-16T06:18:49.325Z,97637.50
2023-04-16T06:21:38.846Z,97635.19
2023-04-16T06:24:27.793Z,97640.03
2023-04-16T06:27:18.044Z,97638.84
2023-04-16T06:30:13.160Z,97642.22
2023-04-16T06:33:02.171Z,97638.66
2023-04-16T06:35:51.045Z,97644.91
2023-04-16T06:38:40.131Z,97642.16
2023-04-16T06:41:29.264Z,97646.63
2023-04-16T06:44:20.210Z,97654.41
2023-04-16T06:47:09.560Z,97644.75
2023-04-16T06:49:58.596Z,97652.16
2023-04-16T06:52:47.987Z,97647.38
2023-04-16T06:55:37.511Z,97648.00
2023-04-16T06:58:27.411Z,97642.69
2023-04-16T07:01:18.759Z,97656.00
2023-04-16T07:04:07.708Z,97650.84
2023-04-16T07:06:59.020Z,97644.09
2023-04-16T07:09:48.183Z,97641.38
2023-04-16T07:12:37.595Z,97640.88
2023-04-16T07:15:26.722Z,97645.69
2023-04-16T07:18:18.023Z,97642.84
2023-04-16T07:21:07.808Z,97643.13
2023-04-16T07:23:57.084Z,97653.56
2023-04-16T07:26:46.372Z,97655.84
2023-04-16T07:29:35.227Z,97652.88
2023-04-16T07:32:24.433Z,97655.78
2023-04-16T07:35:14.952Z,97655.81
2023-04-16T07:38:04.767Z,97663.41
2023-04-16T07:40:53.839Z,97656.13
2023-04-16T07:43:42.642Z,97673.41
2023-04-16T07:46:43.548Z,97662.97
2023-04-16T07:49:35.960Z,97667.41
2023-04-16T07:52:27.620Z,97666.19
2023-04-16T07:55:16.782Z,97668.25
2023-04-16T07:58:06.491Z,97670.09
2023-04-16T08:00:55.796Z,97667.06
2023-04-16T08:03:45.330Z,97673.03
2023-04-16T08:06:34.809Z,97670.06
2023-04-16T08:09:28.520Z,97685.66
2023-04-16T08:12:17.768Z,97684.97
2023-04-16T08:15:08.555Z,97689.19
2023-04-16T08:17:57.842Z,97683.38
2023-04-16T08:20:46.775Z,97696.38
2023-04-16T08:23:36.015Z,97699.19
2023-04-16T08:26:26.339Z,97689.94
2023-04-16T08:29:15.203Z,97694.41
2023-04-16T08:32:04.108Z,97696.78
2023-04-16T08:34:52.960Z,97700.38
2023-04-16T08:37:42.100Z,97697.19
2023-04-16T08:40:34.000Z,97705.41
2023-04-16T08:43:26.822Z,97705.47
2023-04-16T08:46:18.917Z,97709.41
2023-04-16T08:49:10.268Z,97722.38
2023-04-16T08:51:59.370Z,97717.31
2023-04-16T08:55:02.182Z,97716.91
2023-04-16T08:57:58.673Z,97714.72
2023-04-16T09:00:50.073Z,97720.09
2023-04-16T09:03:39.784Z,97715.03
2023-04-16T09:06:29.968Z,97716.81
2023-04-16T09:09:22.485Z,97719.31
2023-04-16T09:12:12.088Z,97721.59
2023-04-16T09:15:03.327Z,97733.53
2023-04-16T09:17:54.308Z,97729.53
2023-04-16T09:20:43.376Z,97732.16
2023-04-16T09:23:32.310Z,97740.16
2023-04-16T09:26:21.954Z,97737.56
2023-04-16T09:29:11.101Z,97741.16
2023-04-16T09:32:05.463Z,97738.63
2023-04-16T09:35:01.079Z,97745.44
2023-04-16T09:37:57.800Z,97753.84
2023-04-16T09:40:48.083Z,97752.31
2023-04-16T09:43:37.981Z,97752.97
2023-04-16T09:46:32.162Z,97755.41
2023-04-16T09:49:21.114Z,97753.88
2023-04-16T09:52:15.800Z,97758.22
2023-04-16T09:55:05.470Z,97755.44
2023-04-16T09:58:01.421Z,97755.44
2023-04-16T10:00:50.738Z,97751.03
2023-04-16T10:03:42.004Z,97755.34
2023-04-16T10:06:31.182Z,97750.38
2023-04-16T10:09:22.906Z,97764.59
2023-04-16T10:12:12.766Z,97754.97
2023-04-16T10:15:01.648Z,97768.25
2023-04-16T10:17:53.883Z,97767.22
2023-04-16T10:20:43.806Z,97760.38
2023-04-16T10:23:33.999Z,97766.75
2023-04-16T10:26:25.971Z,97765.94
2023-04-16T10:29:14.772Z,97766.22
2023-04-16T10:32:04.787Z,97767.75
2023-04-16T10:34:53.826Z,97768.22
2023-04-16T10:37:45.239Z,97759.69
2023-04-16T10:40:34.162Z,97770.06
2023-04-16T10:43:27.190Z,97763.59
2023-04-16T10:46:22.131Z,97763.00
2023-04-16T10:49:17.675Z,97758.19
2023-04-16T10:52:13.457Z,97765.66
2023-04-16T10:55:02.283Z,97767.38
2023-04-16T10:57:53.333Z,97765.88
2023-04-16T11:00:52.920Z,97761.94
2023-04-16T11:03:44.865Z,97772.72
2023-04-16T11:06:34.587Z,97766.09
2023-04-16T11:09:51.916Z,97765.94
2023-04-16T11:12:44.731Z,97772.69
2023-04-16T11:15:34.969Z,97767.97
2023-04-16T11:18:25.958Z,97764.53
2023-04-16T11:21:14.956Z,97771.63
2023-04-16T11:24:03.876Z,97762.34
2023-04-16T11:26:53.167Z,97765.16
2023-04-16T11:29:42.545Z,97767.44
2023-04-16T11:32:34.271Z,97770.56
2023-04-16T11:35:25.737Z,97765.88
2023-04-16T11:38:14.560Z,97768.09
2023-04-16T11:41:04.127Z,97768.13
2023-04-16T11:43:53.041Z,97759.25
2023-04-16T11:46:45.038Z,97763.59
2023-04-16T11:49:33.855Z,97774.22
2023-04-16T11:52:33.410Z,97777.78
2023-04-16T11:55:23.444Z,97770.13
2023-04-16T11:58:15.935Z,97782.97
2023-04-16T12:01:05.562Z,97781.50
2023-04-16T12:04:03.916Z,97780.75
2023-04-16T12:07:09.129Z,97780.41
2023-04-16T12:10:13.058Z,97777.00
2023-04-16T12:13:13.678Z,97780.47
2023-04-16T12:16:03.074Z,97773.63
2023-04-16T12:19:04.095Z,97777.66
2023-04-16T12:21:54.882Z,97780.53
2023-04-16T12:24:43.756Z,97778.63
2023-04-16T12:27:51.332Z,97787.28
2023-04-16T12:30:51.707Z,97804.25
2023-04-16T12:33:40.638Z,97806.75
2023-04-16T12:36:29.503Z,97809.50
2023-04-16T12:39:18.335Z,97814.97
2023-04-16T12:42:11.243Z,97811.19
2023-04-16T12:45:01.537Z,97810.09
2023-04-16T12:47:50.785Z,97829.56
2023-04-16T12:50:40.635Z,97815.13
2023-04-16T12:53:31.573Z,97809.00
2023-04-16T12:56:20.419Z,97816.41
2023-04-16T12:59:10.486Z,97813.44
2023-04-16T13:02:03.515Z,97818.16
2023-04-16T13:04:53.612Z,97822.28
2023-04-16T13:07:42.566Z,97816.31
2023-04-16T13:10:31.835Z,97817.63
2023-04-16T13:13:20.824Z,97815.22
2023-04-16T13:16:09.675Z,97822.47
2023-04-16T13:18:59.863Z,97813.84
2023-04-16T13:21:48.732Z,97814.81
2023-04-16T13:24:37.601Z,97816.66
2023-04-16T13:27:26.612Z,97809.84
2023-04-16T13:30:16.182Z,97802.38
2023-04-16T13:33:05.393Z,97812.25
2023-04-16T13:35:55.640Z,97808.53
2023-04-16T13:38:44.426Z,97801.72
2023-04-16T13:41:33.250Z,97801.41
2023-04-16T13:44:22.126Z,97799.16
2023-04-16T13:47:11.273Z,97794.06
2023-04-16T13:50:00.198Z,97788.94
2023-04-16T13:52:50.777Z,97791.03
2023-04-16T13:55:39.750Z,97796.19
2023-04-16T13:58:28.549Z,97791.16
2023-04-16T14:01:17.987Z,97791.72
2023-04-16T14:04:09.043Z,97796.66
2023-04-16T14:06:58.180Z,97785.97
2023-04-16T14:09:48.351Z,97785.97
2023-04-16T14:12:37.684Z,97779.69
2023-04-16T14:15:27.480Z,97782.38
2023-04-16T14:18:16.631Z,97784.78
2023-04-16T14:21:06.067Z,97784.44
2023-04-16T14:23:54.827Z,97785.97
2023-04-16T14:26:45.888Z,97788.66
2023-04-16T14:29:34.998Z,97791.44
2023-04-16T14:32:24.178Z,97778.44
2023-04-16T14:35:13.108Z,97784.88
2023-04-16T14:38:02.851Z,97786.63
2023-04-16T14:40:51.762Z,97796.66
2023-04-16T14:43:42.419Z,97794.69
2023-04-16T14:46:33.621Z,97794.66
2023-04-16T14:49:22.637Z,97793.50
2023-04-16T14:52:11.802Z,97790.31
2023-04-16T14:55:00.719Z,97800.16
2023-04-16T14:57:49.547Z,97801.84
2023-04-16T15:00:39.943Z,97786.91
2023-04-16T15:03:41.692Z,97802.72
2023-04-16T15:06:32.328Z,97799.50
2023-04-16T15:09:21.420Z,97804.31
2023-04-16T15:12:10.348Z,97800.00
2023-04-16T15:14:59.847Z,97810.59
2023-04-16T15:17:51.028Z,97807.69
2023-04-16T15:20:40.060Z,97810.72
2023-04-16T15:23:28.905Z,97811.28
2023-04-16T15:26:17.767Z,97816.00
2023-04-16T15:29:06.656Z,97820.88
2023-04-16T15:31:55.547Z,97822.16
2023-04-16T15:34:46.582Z,97810.22
2023-04-16T15:37:35.465Z,97813.94
2023-04-16T15:40:26.216Z,97830.19
2023-04-16T15:43:17.254Z,97826.00
2023-04-16T15:46:06.724Z,97827.81
2023-04-16T15:48:55.576Z,97829.13
2023-04-16T15:51:46.275Z,97824.66
2023-04-16T15:54:35.098Z,97833.66
2023-04-16T15:57:23.957Z,97833.50
2023-04-16T16:00:16.653Z,97838.56
2023-04-16T16:03:06.133Z,97842.53
2023-04-16T16:05:55.312Z,97838.69
2023-04-16T16:08:46.285Z,97848.25
2023-04-16T16:11:35.584Z,97841.47
2023-04-16T16:14:24.774Z,97841.78
2023-04-16T16:17:13.767Z,97838.69
2023-04-16T16:20:04.308Z,97841.56
2023-04-16T16:22:54.015Z,97843.28
2023-04-16T16:25:44.230Z,97845.50
2023-04-16T16:28:37.622Z,97855.28
2023-04-16T16:31:26.728Z,97856.81
2023-04-16T16:34:20.733Z,97843.50
2023-04-16T16:37:11.206Z,97848.72
2023-04-16T16:40:00.289Z,97839.47
2023-04-16T16:42:50.753Z,97847.88
2023-04-16T16:45:39.914Z,97845.72
2023-04-16T16:48:28.717Z,97848.38
2023-04-16T16:51:18.926Z,97843.84
2023-04-16T16:54:08.951Z,97858.16
2023-04-16T16:56:58.678Z,97860.72
2023-04-16T16:59:50.429Z,97856.69
2023-04-16T17:02:39.779Z,97860.19
2023-04-16T17:05:28.778Z,97860.31
2023-04-16T17:08:18.334Z,97863.94
2023-04-16T17:11:07.336Z,97864.19
2023-04-16T17:13:56.210Z,97869.59
2023-04-16T17:16:49.761Z,97867.75
2023-04-16T17:19:39.438Z,97871.72
2023-04-16T17:22:28.348Z,97872.69
2023-04-16T17:25:17.254Z,97876.25
2023-04-16T17:28:06.479Z,97875.94
2023-04-16T17:30:56.806Z,97887.38
2023-04-16T17:33:47.296Z,97883.66
2023-04-16T17:36:37.097Z,97886.00
2023-04-16T17:39:27.417Z,97892.88
2023-04-16T17:42:16.275Z,97885.16
2023-04-16T17:45:06.028Z,97896.47
2023-04-16T17:47:54.966Z,97898.63
2023-04-16T17:50:45.204Z,97903.06
2023-04-16T17:53:33.994Z,97911.84
2023-04-16T17:56:23.547Z,97915.84
2023-04-16T17:59:12.534Z,97913.91
2023-04-16T18:02:01.507Z,97919.50
2023-04-16T18:04:55.633Z,97923.69
2023-04-16T18:07:47.008Z,97923.03
2023-04-16T18:10:37.285Z,97922.06
2023-04-16T18:13:27.372Z,97931.06
2023-04-16T18:16:18.475Z,97927.84
2023-04-16T18:19:07.354Z,97927.38
2023-04-16T18:21:58.736Z,97932.34
2023-04-16T18:24:49.731Z,97936.66
2023-04-16T18:27:44.869Z,97941.59
2023-04-16T18:30:34.489Z,97945.78
2023-04-16T18:33:48.226Z,97951.38
2023-04-16T18:36:37.673Z,97950.22
2023-04-16T18:39:27.066Z,97953.22
2023-04-16T18:42:17.338Z,97963.72
2023-04-16T18:45:12.167Z,97963.91
2023-04-16T18:48:04.189Z,97963.19
2023-04-16T18:50:53.151Z,97963.44
2023-04-16T18:53:42.399Z,97970.94
2023-04-16T18:56:31.507Z,97967.69
2023-04-16T18:59:21.822Z,97972.88
2023-04-16T19:02:10.833Z,97977.72
2023-04-16T19:04:59.774Z,97981.56
2023-04-16T19:07:48.841Z,97983.16
2023-04-16T19:10:37.825Z,97988.78
2023-04-16T19:13:26.796Z,97985.41
2023-04-16T19:16:17.160Z,97989.41
2023-04-16T19:19:06.455Z,97984.91
2023-04-16T19:21:55.548Z,97991.59
2023-04-16T19:24:44.404Z,97992.25
2023-04-16T19:27:33.821Z,97989.84
2023-04-16T19:30:23.436Z,97996.94
2023-04-16T19:33:13.786Z,97993.38
2023-04-16T19:36:03.135Z,97992.44
2023-04-16T19:38:57.200Z,98001.59
2023-04-16T19:41:46.176Z,97999.25
2023-04-16T19:44:36.064Z,98003.13
2023-04-16T19:47:25.240Z,98003.50
2023-04-16T19:50:15.943Z,98001.72
2023-04-16T19:53:05.428Z,98008.56
2023-04-16T19:55:54.427Z,98004.28
2023-04-16T19:58:43.766Z,98009.25
2023-04-16T20:01:33.766Z,98009.56
2023-04-16T20:04:22.886Z,98019.22
2023-04-16T20:07:13.200Z,98014.94
2023-04-16T20:10:02.936Z,98014.25
2023-04-16T20:12:52.219Z,98017.56
2023-04-16T20:15:42.602Z,98022.06
2023-04-16T20:18:31.786Z,98020.63
2023-04-16T20:21:21.389Z,98025.56
2023-04-16T20:24:11.641Z,98025.09
2023-04-16T20:27:01.724Z,98029.03
2023-04-16T20:29:51.820Z,98024.38
2023-04-16T20:32:41.035Z,98017.50
2023-04-16T20:35:30.256Z,98019.03
2023-04-16T20:38:23.614Z,98015.69
2023-04-16T20:41:20.358Z,98019.03
2023-04-16T20:44:10.069Z,98021.88
2023-04-16T20:46:59.513Z,98021.88
2023-04-16T20:49:49.193Z,98021.03
2023-04-16T20:52:38.544Z,98012.91
2023-04-16T20:55:27.591Z,98018.53
2023-04-16T20:58:17.870Z,98015.75
2023-04-16T21:01:07.094Z,98019.22
2023-04-16T21:03:56.585Z,98019.75
2023-04-16T21:06:45.755Z,98018.94
2023-04-16T21:09:34.758Z,98017.97
2023-04-16T21:12:23.871Z,98015.44
2023-04-16T21:15:14.413Z,98021.88
2023-04-16T21:18:03.306Z,98013.78
2023-04-16T21:20:52.252Z,98022.75
2023-04-16T21:23:41.157Z,98025.66
2023-04-16T21:26:30.037Z,98020.34
2023-04-16T21:29:18.915Z,98020.81
2023-04-16T21:32:09.181Z,98028.84
2023-04-16T21:34:58.168Z,98020.81
2023-04-16T21:37:47.157Z,98021.13
2023-04-16T21:40:36.061Z,98025.19
2023-04-16T21:43:25.412Z,98017.78
2023-04-16T21:46:14.348Z,98025.25
2023-04-16T21:49:04.551Z,98021.72
2023-04-16T21:51:59.324Z,98030.63
2023-04-16T21:54:48.575Z,98026.53
2023-04-16T21:57:37.576Z,98031.06
2023-04-16T22:00:26.789Z,98025.47
2023-04-16T22:03:17.451Z,98025.97
2023-04-16T22:06:08.806Z,98027.38
2023-04-16T22:08:59.570Z,98023.25
2023-04-16T22:11:48.408Z,98022.16
2023-04-16T22:14:42.132Z,98028.28
2023-04-16T22:17:35.857Z,98027.50
2023-04-16T22:20:24.899Z,98023.97
2023-04-16T22:23:15.170Z,98022.06
2023-04-16T22:26:04.200Z,98026.28
2023-04-16T22:28:53.274Z,98024.59
2023-04-16T22:31:42.325Z,98026.09
2023-04-16T22:34:31.384Z,98020.56
2023-04-16T22:37:20.376Z,98021.16
2023-04-16T22:40:11.874Z,98021.28
2023-04-16T22:43:00.895Z,98017.25
2023-04-16T22:45:49.820Z,98021.75
2023-04-16T22:48:40.204Z,98023.88
2023-04-16T22:51:29.239Z,98018.44
2023-04-16T22:54:18.099Z,98020.34
2023-04-16T22:57:08.322Z,98013.91
2023-04-16T22:59:57.489Z,98015.19
2023-04-16T23:02:46.743Z,98022.63
2023-04-16T23:05:35.790Z,98022.97
2023-04-16T23:08:24.796Z,98022.16
2023-04-16T23:11:13.657Z,98025.16
2023-04-16T23:14:05.023Z,98023.59
2023-04-16T23:16:53.976Z,98021.53
2023-04-16T23:19:42.836Z,98016.13
2023-04-16T23:22:31.761Z,98016.13
2023-04-16T23:25:22.425Z,98011.25
2023-04-16T23:28:11.619Z,98014.16
2023-04-16T23:31:02.348Z,98013.72
2023-04-16T23:33:52.228Z,98010.41
2023-04-16T23:36:41.221Z,98003.88
2023-04-16T23:39:30.370Z,98017.09
2023-04-16T23:42:19.795Z,98012.88
2023-04-16T23:45:11.002Z,98011.72
2023-04-16T23:48:01.463Z,98006.59
2023-04-16T23:50:50.474Z,98001.56
2023-04-16T23:53:40.701Z,97997.31
2023-04-16T23:56:29.728Z,98012.97
2023-04-16T23:59:18.674Z,98007.94
